sensor_id;sensor_type;location;lat;lon;timestamp;temperature;humidity
18658;DHT22;9458;50.942;5.074;2023-05-07T00:01:59;14.60;99.90
18658;DHT22;9458;50.942;5.074;2023-05-07T00:04:39;14.60;99.90
18658;DHT22;9458;50.942;5.074;2023-05-07T00:07:20;14.60;99.90
18658;DHT22;9458;50.942;5.074;2023-05-07T00:09:53;14.50;99.90
18658;DHT22;9458;50.942;5.074;2023-05-07T00:12:21;14.60;99.90
18658;DHT22;9458;50.942;5.074;2023-05-07T00:14:55;14.70;99.90
18658;DHT22;9458;50.942;5.074;2023-05-07T00:17:25;14.80;99.90
18658;DHT22;9458;50.942;5.074;2023-05-07T00:19:53;14.80;99.90
18658;DHT22;9458;50.942;5.074;2023-05-07T00:22:20;14.80;99.90
18658;DHT22;9458;50.942;5.074;2023-05-07T00:24:49;14.80;99.90
18658;DHT22;9458;50.942;5.074;2023-05-07T00:27:17;14.70;99.90
18658;DHT22;9458;50.942;5.074;2023-05-07T00:29:48;14.70;99.90
18658;DHT22;9458;50.942;5.074;2023-05-07T00:32:17;14.70;99.90
18658;DHT22;9458;50.942;5.074;2023-05-07T00:34:54;14.70;99.90
18658;DHT22;9458;50.942;5.074;2023-05-07T00:37:22;14.90;99.90
18658;DHT22;9458;50.942;5.074;2023-05-07T00:39:49;14.90;99.90
18658;DHT22;9458;50.942;5.074;2023-05-07T00:42:19;14.90;99.90
18658;DHT22;9458;50.942;5.074;2023-05-07T00:44:49;15.00;99.90
18658;DHT22;9458;50.942;5.074;2023-05-07T00:47:18;15.10;99.90
18658;DHT22;9458;50.942;5.074;2023-05-07T00:49:46;15.20;99.90
18658;DHT22;9458;50.942;5.074;2023-05-07T00:52:16;15.10;99.90
18658;DHT22;9458;50.942;5.074;2023-05-07T00:54:46;15.20;99.90
18658;DHT22;9458;50.942;5.074;2023-05-07T00:57:15;15.20;99.90
18658;DHT22;9458;50.942;5.074;2023-05-07T00:59:44;15.10;99.90
18658;DHT22;9458;50.942;5.074;2023-05-07T01:02:12;15.10;99.90
18658;DHT22;9458;50.942;5.074;2023-05-07T01:04:44;15.10;99.90
18658;DHT22;9458;50.942;5.074;2023-05-07T01:07:13;15.00;99.90
18658;DHT22;9458;50.942;5.074;2023-05-07T01:09:47;15.10;99.90
18658;DHT22;9458;50.942;5.074;2023-05-07T01:12:25;15.00;99.90
18658;DHT22;9458;50.942;5.074;2023-05-07T01:15:04;15.00;99.90
18658;DHT22;9458;50.942;5.074;2023-05-07T01:17:40;14.90;99.90
18658;DHT22;9458;50.942;5.074;2023-05-07T01:20:19;15.00;99.90
18658;DHT22;9458;50.942;5.074;2023-05-07T01:22:56;15.00;99.90
18658;DHT22;9458;50.942;5.074;2023-05-07T01:25:28;15.00;99.90
18658;DHT22;9458;50.942;5.074;2023-05-07T01:27:57;15.00;99.90
18658;DHT22;9458;50.942;5.074;2023-05-07T01:30:27;15.00;99.90
18658;DHT22;9458;50.942;5.074;2023-05-07T01:32:59;15.00;99.90
18658;DHT22;9458;50.942;5.074;2023-05-07T01:35:32;15.00;99.90
18658;DHT22;9458;50.942;5.074;2023-05-07T01:38:05;15.00;99.90
18658;DHT22;9458;50.942;5.074;2023-05-07T01:40:43;14.90;99.90
18658;DHT22;9458;50.942;5.074;2023-05-07T01:43:12;14.90;99.90
18658;DHT22;9458;50.942;5.074;2023-05-07T01:45:40;14.80;99.90
18658;DHT22;9458;50.942;5.074;2023-05-07T01:48:10;14.90;99.90
18658;DHT22;9458;50.942;5.074;2023-05-07T01:50:39;14.80;99.90
18658;DHT22;9458;50.942;5.074;2023-05-07T01:53:10;14.80;99.90
18658;DHT22;9458;50.942;5.074;2023-05-07T01:55:38;14.80;99.90
18658;DHT22;9458;50.942;5.074;2023-05-07T01:58:07;14.80;99.90
18658;DHT22;9458;50.942;5.074;2023-05-07T02:00:34;14.80;99.90
18658;DHT22;9458;50.942;5.074;2023-05-07T02:03:04;14.90;99.90
18658;DHT22;9458;50.942;5.074;2023-05-07T02:05:42;14.90;99.90
18658;DHT22;9458;50.942;5.074;2023-05-07T02:08:11;14.90;99.90
18658;DHT22;9458;50.942;5.074;2023-05-07T02:10:38;14.90;99.90
18658;DHT22;9458;50.942;5.074;2023-05-07T02:13:06;14.90;99.90
18658;DHT22;9458;50.942;5.074;2023-05-07T02:15:34;14.90;99.90
18658;DHT22;9458;50.942;5.074;2023-05-07T02:18:04;15.00;99.90
18658;DHT22;9458;50.942;5.074;2023-05-07T02:20:34;15.10;99.90
18658;DHT22;9458;50.942;5.074;2023-05-07T02:23:02;15.00;99.90
18658;DHT22;9458;50.942;5.074;2023-05-07T02:25:31;15.00;99.90
18658;DHT22;9458;50.942;5.074;2023-05-07T02:28:00;15.00;99.90
18658;DHT22;9458;50.942;5.074;2023-05-07T02:30:28;15.10;99.90
18658;DHT22;9458;50.942;5.074;2023-05-07T02:32:57;15.20;99.90
18658;DHT22;9458;50.942;5.074;2023-05-07T02:35:25;15.20;99.90
18658;DHT22;9458;50.942;5.074;2023-05-07T02:37:53;15.20;99.90
18658;DHT22;9458;50.942;5.074;2023-05-07T02:40:21;15.10;99.90
18658;DHT22;9458;50.942;5.074;2023-05-07T02:42:50;15.10;99.90
18658;DHT22;9458;50.942;5.074;2023-05-07T02:45:18;15.00;99.90
18658;DHT22;9458;50.942;5.074;2023-05-07T02:47:47;15.00;99.90
18658;DHT22;9458;50.942;5.074;2023-05-07T02:50:15;15.00;99.90
18658;DHT22;9458;50.942;5.074;2023-05-07T02:52:42;14.90;99.90
18658;DHT22;9458;50.942;5.074;2023-05-07T02:55:10;14.90;99.90
18658;DHT22;9458;50.942;5.074;2023-05-07T02:57:39;14.90;99.90
18658;DHT22;9458;50.942;5.074;2023-05-07T03:00:17;14.80;99.90
18658;DHT22;9458;50.942;5.074;2023-05-07T03:02:47;14.80;99.90
18658;DHT22;9458;50.942;5.074;2023-05-07T03:05:16;14.70;99.90
18658;DHT22;9458;50.942;5.074;2023-05-07T03:07:44;14.80;99.90
18658;DHT22;9458;50.942;5.074;2023-05-07T03:10:13;14.80;99.90
18658;DHT22;9458;50.942;5.074;2023-05-07T03:12:41;14.80;99.90
18658;DHT22;9458;50.942;5.074;2023-05-07T03:15:09;14.80;99.90
18658;DHT22;9458;50.942;5.074;2023-05-07T03:17:40;14.70;99.90
18658;DHT22;9458;50.942;5.074;2023-05-07T03:20:09;14.70;99.90
18658;DHT22;9458;50.942;5.074;2023-05-07T03:22:36;14.70;99.90
18658;DHT22;9458;50.942;5.074;2023-05-07T03:25:05;14.70;99.90
18658;DHT22;9458;50.942;5.074;2023-05-07T03:27:33;14.70;99.90
18658;DHT22;9458;50.942;5.074;2023-05-07T03:30:01;14.60;99.90
18658;DHT22;9458;50.942;5.074;2023-05-07T03:32:29;14.70;99.90
18658;DHT22;9458;50.942;5.074;2023-05-07T03:35:05;14.30;99.90
18658;DHT22;9458;50.942;5.074;2023-05-07T03:37:38;14.70;99.90
18658;DHT22;9458;50.942;5.074;2023-05-07T03:40:11;14.70;99.90
18658;DHT22;9458;50.942;5.074;2023-05-07T03:42:42;14.80;99.90
18658;DHT22;9458;50.942;5.074;2023-05-07T03:45:14;14.80;99.90
18658;DHT22;9458;50.942;5.074;2023-05-07T03:47:47;14.80;99.90
18658;DHT22;9458;50.942;5.074;2023-05-07T03:50:19;14.80;99.90
18658;DHT22;9458;50.942;5.074;2023-05-07T03:52:51;14.80;99.90
18658;DHT22;9458;50.942;5.074;2023-05-07T03:55:20;14.80;99.90
18658;DHT22;9458;50.942;5.074;2023-05-07T03:57:52;14.90;99.90
18658;DHT22;9458;50.942;5.074;2023-05-07T04:00:22;14.90;99.90
18658;DHT22;9458;50.942;5.074;2023-05-07T04:02:51;14.80;99.90
18658;DHT22;9458;50.942;5.074;2023-05-07T04:05:22;14.80;99.90
18658;DHT22;9458;50.942;5.074;2023-05-07T04:07:51;14.80;99.90
18658;DHT22;9458;50.942;5.074;2023-05-07T04:10:21;14.80;99.90
18658;DHT22;9458;50.942;5.074;2023-05-07T04:12:58;14.80;99.90
18658;DHT22;9458;50.942;5.074;2023-05-07T04:15:28;14.80;99.90
18658;DHT22;9458;50.942;5.074;2023-05-07T04:18:01;14.80;99.90
18658;DHT22;9458;50.942;5.074;2023-05-07T04:20:34;14.60;99.90
18658;DHT22;9458;50.942;5.074;2023-05-07T04:23:02;14.80;99.90
18658;DHT22;9458;50.942;5.074;2023-05-07T04:25:30;14.90;99.90
18658;DHT22;9458;50.942;5.074;2023-05-07T04:27:58;14.90;99.90
18658;DHT22;9458;50.942;5.074;2023-05-07T04:30:25;14.90;99.90
18658;DHT22;9458;50.942;5.074;2023-05-07T04:32:53;14.90;99.90
18658;DHT22;9458;50.942;5.074;2023-05-07T04:35:22;14.90;99.90
18658;DHT22;9458;50.942;5.074;2023-05-07T04:37:52;14.90;99.90
18658;DHT22;9458;50.942;5.074;2023-05-07T04:40:19;15.00;99.90
18658;DHT22;9458;50.942;5.074;2023-05-07T04:42:47;15.00;99.90
18658;DHT22;9458;50.942;5.074;2023-05-07T04:45:16;15.00;99.90
18658;DHT22;9458;50.942;5.074;2023-05-07T04:47:45;15.10;99.90
18658;DHT22;9458;50.942;5.074;2023-05-07T04:50:13;15.00;99.90
18658;DHT22;9458;50.942;5.074;2023-05-07T04:52:42;15.00;99.90
18658;DHT22;9458;50.942;5.074;2023-05-07T04:55:12;15.00;99.90
18658;DHT22;9458;50.942;5.074;2023-05-07T04:57:39;15.10;99.90
18658;DHT22;9458;50.942;5.074;2023-05-07T05:00:10;15.10;99.90
18658;DHT22;9458;50.942;5.074;2023-05-07T05:02:47;15.10;99.90
18658;DHT22;9458;50.942;5.074;2023-05-07T05:05:16;15.10;99.90
18658;DHT22;9458;50.942;5.074;2023-05-07T05:07:44;15.20;99.90
18658;DHT22;9458;50.942;5.074;2023-05-07T05:10:17;15.20;99.90
18658;DHT22;9458;50.942;5.074;2023-05-07T05:12:46;15.20;99.90
18658;DHT22;9458;50.942;5.074;2023-05-07T05:15:16;15.30;99.90
18658;DHT22;9458;50.942;5.074;2023-05-07T05:17:44;15.40;99.90
18658;DHT22;9458;50.942;5.074;2023-05-07T05:20:11;15.40;99.90
18658;DHT22;9458;50.942;5.074;2023-05-07T05:22:44;15.40;99.90
18658;DHT22;9458;50.942;5.074;2023-05-07T05:25:13;15.50;99.90
18658;DHT22;9458;50.942;5.074;2023-05-07T05:27:43;15.60;99.90
18658;DHT22;9458;50.942;5.074;2023-05-07T05:30:11;15.60;99.90
18658;DHT22;9458;50.942;5.074;2023-05-07T05:32:41;15.60;99.90
18658;DHT22;9458;50.942;5.074;2023-05-07T05:35:11;15.60;99.90
18658;DHT22;9458;50.942;5.074;2023-05-07T05:37:40;15.60;99.90
18658;DHT22;9458;50.942;5.074;2023-05-07T05:40:11;15.60;99.90
18658;DHT22;9458;50.942;5.074;2023-05-07T05:42:41;15.80;99.90
18658;DHT22;9458;50.942;5.074;2023-05-07T05:45:09;16.00;99.90
18658;DHT22;9458;50.942;5.074;2023-05-07T05:47:38;16.20;99.90
18658;DHT22;9458;50.942;5.074;2023-05-07T05:50:07;16.40;99.90
18658;DHT22;9458;50.942;5.074;2023-05-07T05:52:35;16.60;99.90
18658;DHT22;9458;50.942;5.074;2023-05-07T05:55:09;16.40;99.90
18658;DHT22;9458;50.942;5.074;2023-05-07T05:57:37;16.80;99.90
18658;DHT22;9458;50.942;5.074;2023-05-07T06:00:10;16.60;99.90
18658;DHT22;9458;50.942;5.074;2023-05-07T06:02:42;16.30;99.90
18658;DHT22;9458;50.942;5.074;2023-05-07T06:05:20;16.30;99.90
18658;DHT22;9458;50.942;5.074;2023-05-07T06:07:57;16.40;99.90
18658;DHT22;9458;50.942;5.074;2023-05-07T06:10:29;16.30;99.90
18658;DHT22;9458;50.942;5.074;2023-05-07T06:13:04;16.40;99.90
18658;DHT22;9458;50.942;5.074;2023-05-07T06:15:43;16.50;99.90
18658;DHT22;9458;50.942;5.074;2023-05-07T06:18:18;16.70;99.90
18658;DHT22;9458;50.942;5.074;2023-05-07T06:20:51;16.80;99.90
18658;DHT22;9458;50.942;5.074;2023-05-07T06:23:21;16.80;99.90
18658;DHT22;9458;50.942;5.074;2023-05-07T06:25:49;16.70;99.90
18658;DHT22;9458;50.942;5.074;2023-05-07T06:28:17;16.80;99.90
18658;DHT22;9458;50.942;5.074;2023-05-07T06:30:47;17.00;99.90
18658;DHT22;9458;50.942;5.074;2023-05-07T06:33:16;17.10;99.90
18658;DHT22;9458;50.942;5.074;2023-05-07T06:35:45;17.20;99.90
18658;DHT22;9458;50.942;5.074;2023-05-07T06:38:18;17.30;99.90
18658;DHT22;9458;50.942;5.074;2023-05-07T06:40:48;17.20;99.90
18658;DHT22;9458;50.942;5.074;2023-05-07T06:43:16;17.20;99.90
18658;DHT22;9458;50.942;5.074;2023-05-07T06:45:44;17.40;99.90
18658;DHT22;9458;50.942;5.074;2023-05-07T06:48:15;17.70;99.90
18658;DHT22;9458;50.942;5.074;2023-05-07T06:50:42;17.90;99.90
18658;DHT22;9458;50.942;5.074;2023-05-07T06:53:10;18.30;99.90
18658;DHT22;9458;50.942;5.074;2023-05-07T06:55:39;18.50;99.90
18658;DHT22;9458;50.942;5.074;2023-05-07T06:58:09;18.80;99.90
18658;DHT22;9458;50.942;5.074;2023-05-07T07:00:37;19.30;99.90
18658;DHT22;9458;50.942;5.074;2023-05-07T07:03:09;19.60;99.90
18658;DHT22;9458;50.942;5.074;2023-05-07T07:05:38;19.90;99.90
18658;DHT22;9458;50.942;5.074;2023-05-07T07:08:06;20.10;99.90
18658;DHT22;9458;50.942;5.074;2023-05-07T07:10:34;20.00;99.90
18658;DHT22;9458;50.942;5.074;2023-05-07T07:13:03;19.90;99.90
18658;DHT22;9458;50.942;5.074;2023-05-07T07:15:30;19.70;99.90
18658;DHT22;9458;50.942;5.074;2023-05-07T07:18:00;19.30;99.90
18658;DHT22;9458;50.942;5.074;2023-05-07T07:20:30;19.30;99.90
18658;DHT22;9458;50.942;5.074;2023-05-07T07:22:59;19.40;99.90
18658;DHT22;9458;50.942;5.074;2023-05-07T07:25:26;19.70;99.90
18658;DHT22;9458;50.942;5.074;2023-05-07T07:27:54;19.80;99.90
18658;DHT22;9458;50.942;5.074;2023-05-07T07:30:22;19.50;99.90
18658;DHT22;9458;50.942;5.074;2023-05-07T07:32:51;19.80;99.90
18658;DHT22;9458;50.942;5.074;2023-05-07T07:35:19;19.70;99.90
18658;DHT22;9458;50.942;5.074;2023-05-07T07:37:48;19.50;99.90
18658;DHT22;9458;50.942;5.074;2023-05-07T07:40:18;19.60;99.90
18658;DHT22;9458;50.942;5.074;2023-05-07T07:42:46;19.60;99.90
18658;DHT22;9458;50.942;5.074;2023-05-07T07:45:14;19.50;99.90
18658;DHT22;9458;50.942;5.074;2023-05-07T07:47:43;19.50;99.90
18658;DHT22;9458;50.942;5.074;2023-05-07T07:50:12;19.60;99.90
18658;DHT22;9458;50.942;5.074;2023-05-07T07:52:45;19.80;99.90
18658;DHT22;9458;50.942;5.074;2023-05-07T07:55:12;20.30;99.90
18658;DHT22;9458;50.942;5.074;2023-05-07T07:57:45;20.40;99.90
18658;DHT22;9458;50.942;5.074;2023-05-07T08:00:13;21.00;99.90
18658;DHT22;9458;50.942;5.074;2023-05-07T08:02:50;21.00;99.90
18658;DHT22;9458;50.942;5.074;2023-05-07T08:05:18;21.90;99.90
18658;DHT22;9458;50.942;5.074;2023-05-07T08:07:47;22.70;99.90
18658;DHT22;9458;50.942;5.074;2023-05-07T08:10:17;23.30;99.90
18658;DHT22;9458;50.942;5.074;2023-05-07T08:12:49;23.50;99.90
18658;DHT22;9458;50.942;5.074;2023-05-07T08:15:17;23.20;99.90
18658;DHT22;9458;50.942;5.074;2023-05-07T08:17:46;23.00;99.90
18658;DHT22;9458;50.942;5.074;2023-05-07T08:20:14;22.90;99.90
18658;DHT22;9458;50.942;5.074;2023-05-07T08:22:41;22.80;99.90
18658;DHT22;9458;50.942;5.074;2023-05-07T08:25:10;22.70;99.90
18658;DHT22;9458;50.942;5.074;2023-05-07T08:27:37;22.40;99.90
18658;DHT22;9458;50.942;5.074;2023-05-07T08:30:11;22.30;99.90
18658;DHT22;9458;50.942;5.074;2023-05-07T08:32:41;22.10;99.90
18658;DHT22;9458;50.942;5.074;2023-05-07T08:35:09;21.80;99.90
18658;DHT22;9458;50.942;5.074;2023-05-07T08:37:37;21.60;99.90
18658;DHT22;9458;50.942;5.074;2023-05-07T08:40:05;21.50;99.90
18658;DHT22;9458;50.942;5.074;2023-05-07T08:42:35;21.50;99.90
18658;DHT22;9458;50.942;5.074;2023-05-07T08:45:08;21.80;99.90
18658;DHT22;9458;50.942;5.074;2023-05-07T08:47:43;21.90;99.90
18658;DHT22;9458;50.942;5.074;2023-05-07T08:50:12;21.90;99.90
18658;DHT22;9458;50.942;5.074;2023-05-07T08:52:40;21.70;99.90
18658;DHT22;9458;50.942;5.074;2023-05-07T08:55:09;21.90;99.90
18658;DHT22;9458;50.942;5.074;2023-05-07T08:57:38;22.80;99.90
18658;DHT22;9458;50.942;5.074;2023-05-07T09:00:09;23.40;99.90
18658;DHT22;9458;50.942;5.074;2023-05-07T09:02:38;23.80;99.90
18658;DHT22;9458;50.942;5.074;2023-05-07T09:05:07;23.70;99.90
18658;DHT22;9458;50.942;5.074;2023-05-07T09:07:35;24.10;99.90
18658;DHT22;9458;50.942;5.074;2023-05-07T09:10:04;24.00;99.90
18658;DHT22;9458;50.942;5.074;2023-05-07T09:12:32;24.00;99.90
18658;DHT22;9458;50.942;5.074;2023-05-07T09:15:01;24.10;99.90
18658;DHT22;9458;50.942;5.074;2023-05-07T09:17:32;23.90;99.90
18658;DHT22;9458;50.942;5.074;2023-05-07T09:20:02;23.90;99.90
18658;DHT22;9458;50.942;5.074;2023-05-07T09:22:32;23.40;99.90
18658;DHT22;9458;50.942;5.074;2023-05-07T09:25:01;23.10;99.90
18658;DHT22;9458;50.942;5.074;2023-05-07T09:27:30;23.30;99.90
18658;DHT22;9458;50.942;5.074;2023-05-07T09:29:58;23.10;99.90
18658;DHT22;9458;50.942;5.074;2023-05-07T09:32:26;23.10;99.90
18658;DHT22;9458;50.942;5.074;2023-05-07T09:34:58;22.70;99.90
18658;DHT22;9458;50.942;5.074;2023-05-07T09:37:31;22.70;99.90
18658;DHT22;9458;50.942;5.074;2023-05-07T09:39:58;22.60;99.90
18658;DHT22;9458;50.942;5.074;2023-05-07T09:42:26;22.50;99.90
18658;DHT22;9458;50.942;5.074;2023-05-07T09:44:54;22.40;99.90
18658;DHT22;9458;50.942;5.074;2023-05-07T09:47:26;22.20;99.90
18658;DHT22;9458;50.942;5.074;2023-05-07T09:49:59;22.20;99.90
18658;DHT22;9458;50.942;5.074;2023-05-07T09:52:29;22.20;99.90
18658;DHT22;9458;50.942;5.074;2023-05-07T09:54:59;21.90;99.90
18658;DHT22;9458;50.942;5.074;2023-05-07T09:57:29;21.80;99.90
18658;DHT22;9458;50.942;5.074;2023-05-07T09:59:58;21.70;99.90
18658;DHT22;9458;50.942;5.074;2023-05-07T10:02:30;21.70;99.90
18658;DHT22;9458;50.942;5.074;2023-05-07T10:05:11;21.70;99.90
18658;DHT22;9458;50.942;5.074;2023-05-07T10:07:40;21.50;99.90
18658;DHT22;9458;50.942;5.074;2023-05-07T10:10:10;21.40;99.90
18658;DHT22;9458;50.942;5.074;2023-05-07T10:12:38;21.40;99.90
18658;DHT22;9458;50.942;5.074;2023-05-07T10:15:08;21.10;99.90
18658;DHT22;9458;50.942;5.074;2023-05-07T10:17:38;21.20;99.90
18658;DHT22;9458;50.942;5.074;2023-05-07T10:20:07;21.10;99.90
18658;DHT22;9458;50.942;5.074;2023-05-07T10:22:40;21.00;99.90
18658;DHT22;9458;50.942;5.074;2023-05-07T10:25:15;20.60;99.90
18658;DHT22;9458;50.942;5.074;2023-05-07T10:27:46;20.60;99.90
18658;DHT22;9458;50.942;5.074;2023-05-07T10:30:23;20.60;99.90
18658;DHT22;9458;50.942;5.074;2023-05-07T10:32:54;20.60;99.90
18658;DHT22;9458;50.942;5.074;2023-05-07T10:35:25;20.50;99.90
18658;DHT22;9458;50.942;5.074;2023-05-07T10:37:55;20.50;99.90
18658;DHT22;9458;50.942;5.074;2023-05-07T10:40:24;20.30;99.90
18658;DHT22;9458;50.942;5.074;2023-05-07T10:42:55;20.40;99.90
18658;DHT22;9458;50.942;5.074;2023-05-07T10:45:24;20.30;99.90
18658;DHT22;9458;50.942;5.074;2023-05-07T10:48:12;20.50;99.90
18658;DHT22;9458;50.942;5.074;2023-05-07T10:50:40;20.50;99.90
18658;DHT22;9458;50.942;5.074;2023-05-07T10:53:24;20.50;99.90
18658;DHT22;9458;50.942;5.074;2023-05-07T10:56:24;20.40;99.90
18658;DHT22;9458;50.942;5.074;2023-05-07T10:58:51;20.30;99.90
18658;DHT22;9458;50.942;5.074;2023-05-07T11:01:49;20.40;99.90
18658;DHT22;9458;50.942;5.074;2023-05-07T11:08:04;20.50;99.90
18658;DHT22;9458;50.942;5.074;2023-05-07T11:10:50;20.50;99.90
18658;DHT22;9458;50.942;5.074;2023-05-07T11:16:01;20.40;99.90
18658;DHT22;9458;50.942;5.074;2023-05-07T11:18:46;20.40;99.90
18658;DHT22;9458;50.942;5.074;2023-05-07T11:21:36;20.30;99.90
18658;DHT22;9458;50.942;5.074;2023-05-07T11:24:05;20.30;99.90
18658;DHT22;9458;50.942;5.074;2023-05-07T11:26:46;19.90;99.90
18658;DHT22;9458;50.942;5.074;2023-05-07T11:29:15;20.00;99.90
18658;DHT22;9458;50.942;5.074;2023-05-07T11:31:43;19.80;99.90
18658;DHT22;9458;50.942;5.074;2023-05-07T11:34:12;19.90;99.90
18658;DHT22;9458;50.942;5.074;2023-05-07T11:36:44;20.00;99.90
18658;DHT22;9458;50.942;5.074;2023-05-07T11:39:29;19.90;99.90
18658;DHT22;9458;50.942;5.074;2023-05-07T11:42:00;20.10;99.90
18658;DHT22;9458;50.942;5.074;2023-05-07T11:44:43;20.40;99.90
18658;DHT22;9458;50.942;5.074;2023-05-07T11:47:16;20.40;99.90
18658;DHT22;9458;50.942;5.074;2023-05-07T11:49:47;20.40;99.90
18658;DHT22;9458;50.942;5.074;2023-05-07T11:52:15;20.40;99.90
18658;DHT22;9458;50.942;5.074;2023-05-07T11:54:49;21.00;99.90
18658;DHT22;9458;50.942;5.074;2023-05-07T11:57:19;20.50;99.90
18658;DHT22;9458;50.942;5.074;2023-05-07T11:59:46;20.50;99.90
18658;DHT22;9458;50.942;5.074;2023-05-07T12:02:14;20.30;99.90
18658;DHT22;9458;50.942;5.074;2023-05-07T12:04:42;20.10;99.90
18658;DHT22;9458;50.942;5.074;2023-05-07T12:07:12;20.10;99.90
18658;DHT22;9458;50.942;5.074;2023-05-07T12:09:40;20.10;99.90
18658;DHT22;9458;50.942;5.074;2023-05-07T12:12:08;20.10;99.90
18658;DHT22;9458;50.942;5.074;2023-05-07T12:14:39;20.20;99.90
18658;DHT22;9458;50.942;5.074;2023-05-07T12:17:09;20.30;99.90
18658;DHT22;9458;50.942;5.074;2023-05-07T12:19:38;20.30;99.90
18658;DHT22;9458;50.942;5.074;2023-05-07T12:22:07;20.30;99.90
18658;DHT22;9458;50.942;5.074;2023-05-07T12:24:46;20.30;99.90
18658;DHT22;9458;50.942;5.074;2023-05-07T12:27:15;20.30;99.90
18658;DHT22;9458;50.942;5.074;2023-05-07T12:29:49;20.20;99.90
18658;DHT22;9458;50.942;5.074;2023-05-07T12:32:21;20.10;99.90
18658;DHT22;9458;50.942;5.074;2023-05-07T12:34:50;19.70;99.90
18658;DHT22;9458;50.942;5.074;2023-05-07T12:37:23;20.30;99.90
18658;DHT22;9458;50.942;5.074;2023-05-07T12:40:04;20.40;99.90
18658;DHT22;9458;50.942;5.074;2023-05-07T12:42:33;20.30;99.90
18658;DHT22;9458;50.942;5.074;2023-05-07T12:45:11;20.40;99.90
18658;DHT22;9458;50.942;5.074;2023-05-07T12:47:39;20.50;99.90
18658;DHT22;9458;50.942;5.074;2023-05-07T12:50:07;20.60;99.90
18658;DHT22;9458;50.942;5.074;2023-05-07T12:52:35;20.80;99.90
18658;DHT22;9458;50.942;5.074;2023-05-07T12:55:07;20.70;99.90
18658;DHT22;9458;50.942;5.074;2023-05-07T12:57:38;20.80;99.90
18658;DHT22;9458;50.942;5.074;2023-05-07T13:00:11;20.50;99.90
18658;DHT22;9458;50.942;5.074;2023-05-07T13:02:47;20.40;99.90
18658;DHT22;9458;50.942;5.074;2023-05-07T13:05:14;20.50;99.90
18658;DHT22;9458;50.942;5.074;2023-05-07T13:07:52;20.50;99.90
18658;DHT22;9458;50.942;5.074;2023-05-07T13:10:21;20.60;99.90
18658;DHT22;9458;50.942;5.074;2023-05-07T13:12:48;20.60;99.90
18658;DHT22;9458;50.942;5.074;2023-05-07T13:15:18;20.60;99.90
18658;DHT22;9458;50.942;5.074;2023-05-07T13:17:45;20.70;99.90
18658;DHT22;9458;50.942;5.074;2023-05-07T13:20:12;20.70;99.90
18658;DHT22;9458;50.942;5.074;2023-05-07T13:22:41;20.80;99.90
18658;DHT22;9458;50.942;5.074;2023-05-07T13:25:10;20.90;99.90
18658;DHT22;9458;50.942;5.074;2023-05-07T13:27:38;21.00;99.90
18658;DHT22;9458;50.942;5.074;2023-05-07T13:30:06;20.90;99.90
18658;DHT22;9458;50.942;5.074;2023-05-07T13:32:35;20.80;99.90
18658;DHT22;9458;50.942;5.074;2023-05-07T13:35:03;20.80;99.90
18658;DHT22;9458;50.942;5.074;2023-05-07T13:37:31;20.90;99.90
18658;DHT22;9458;50.942;5.074;2023-05-07T13:39:58;21.10;99.90
18658;DHT22;9458;50.942;5.074;2023-05-07T13:42:26;21.10;99.90
18658;DHT22;9458;50.942;5.074;2023-05-07T13:44:53;21.10;99.90
18658;DHT22;9458;50.942;5.074;2023-05-07T13:47:21;21.10;99.90
18658;DHT22;9458;50.942;5.074;2023-05-07T13:49:49;20.90;99.90
18658;DHT22;9458;50.942;5.074;2023-05-07T13:52:17;21.00;99.90
18658;DHT22;9458;50.942;5.074;2023-05-07T13:54:44;20.80;99.90
18658;DHT22;9458;50.942;5.074;2023-05-07T13:57:12;20.70;99.90
18658;DHT22;9458;50.942;5.074;2023-05-07T13:59:43;20.50;99.90
18658;DHT22;9458;50.942;5.074;2023-05-07T14:02:11;20.70;99.90
18658;DHT22;9458;50.942;5.074;2023-05-07T14:04:51;20.90;99.90
18658;DHT22;9458;50.942;5.074;2023-05-07T14:07:19;21.00;99.90
18658;DHT22;9458;50.942;5.074;2023-05-07T14:09:47;21.00;99.90
18658;DHT22;9458;50.942;5.074;2023-05-07T14:12:15;20.90;99.90
18658;DHT22;9458;50.942;5.074;2023-05-07T14:14:42;20.90;99.90
18658;DHT22;9458;50.942;5.074;2023-05-07T14:17:11;21.10;99.90
18658;DHT22;9458;50.942;5.074;2023-05-07T14:19:38;20.90;99.90
18658;DHT22;9458;50.942;5.074;2023-05-07T14:22:07;21.00;99.90
18658;DHT22;9458;50.942;5.074;2023-05-07T14:24:34;20.80;99.90
18658;DHT22;9458;50.942;5.074;2023-05-07T14:27:02;20.70;99.90
18658;DHT22;9458;50.942;5.074;2023-05-07T14:29:30;20.60;99.90
18658;DHT22;9458;50.942;5.074;2023-05-07T14:31:57;20.80;99.90
18658;DHT22;9458;50.942;5.074;2023-05-07T14:34:25;20.40;99.90
18658;DHT22;9458;50.942;5.074;2023-05-07T14:36:52;20.20;99.90
18658;DHT22;9458;50.942;5.074;2023-05-07T14:39:21;20.20;99.90
18658;DHT22;9458;50.942;5.074;2023-05-07T14:41:49;20.10;99.90
18658;DHT22;9458;50.942;5.074;2023-05-07T14:44:16;20.20;99.90
18658;DHT22;9458;50.942;5.074;2023-05-07T14:46:43;20.40;99.90
18658;DHT22;9458;50.942;5.074;2023-05-07T14:49:11;20.40;99.90
18658;DHT22;9458;50.942;5.074;2023-05-07T14:51:43;20.50;99.90
18658;DHT22;9458;50.942;5.074;2023-05-07T14:54:11;20.50;99.90
18658;DHT22;9458;50.942;5.074;2023-05-07T14:56:41;20.50;99.90
18658;DHT22;9458;50.942;5.074;2023-05-07T14:59:09;20.60;99.90
18658;DHT22;9458;50.942;5.074;2023-05-07T15:01:37;20.60;99.90
18658;DHT22;9458;50.942;5.074;2023-05-07T15:04:06;20.60;99.90
18658;DHT22;9458;50.942;5.074;2023-05-07T15:06:33;20.70;99.90
18658;DHT22;9458;50.942;5.074;2023-05-07T15:09:01;20.70;99.90
18658;DHT22;9458;50.942;5.074;2023-05-07T15:11:29;20.60;99.90
18658;DHT22;9458;50.942;5.074;2023-05-07T15:13:57;20.70;99.90
18658;DHT22;9458;50.942;5.074;2023-05-07T15:16:26;20.70;99.90
18658;DHT22;9458;50.942;5.074;2023-05-07T15:18:54;20.70;99.90
18658;DHT22;9458;50.942;5.074;2023-05-07T15:21:21;20.60;99.90
18658;DHT22;9458;50.942;5.074;2023-05-07T15:23:49;20.40;99.90
18658;DHT22;9458;50.942;5.074;2023-05-07T15:26:16;20.30;99.90
18658;DHT22;9458;50.942;5.074;2023-05-07T15:28:43;20.40;99.90
18658;DHT22;9458;50.942;5.074;2023-05-07T15:31:13;20.50;99.90
18658;DHT22;9458;50.942;5.074;2023-05-07T15:33:40;20.20;99.90
18658;DHT22;9458;50.942;5.074;2023-05-07T15:36:07;20.60;99.90
18658;DHT22;9458;50.942;5.074;2023-05-07T15:38:35;20.50;99.90
18658;DHT22;9458;50.942;5.074;2023-05-07T15:41:03;20.20;99.90
18658;DHT22;9458;50.942;5.074;2023-05-07T15:43:30;20.00;99.90
18658;DHT22;9458;50.942;5.074;2023-05-07T15:45:58;20.10;99.90
18658;DHT22;9458;50.942;5.074;2023-05-07T15:48:28;20.20;99.90
18658;DHT22;9458;50.942;5.074;2023-05-07T15:50:56;20.20;99.90
18658;DHT22;9458;50.942;5.074;2023-05-07T15:53:24;20.20;99.90
18658;DHT22;9458;50.942;5.074;2023-05-07T15:55:51;20.30;99.90
18658;DHT22;9458;50.942;5.074;2023-05-07T15:58:19;20.40;99.90
18658;DHT22;9458;50.942;5.074;2023-05-07T16:00:46;20.30;99.90
18658;DHT22;9458;50.942;5.074;2023-05-07T16:03:14;20.40;99.90
18658;DHT22;9458;50.942;5.074;2023-05-07T16:05:45;20.40;99.90
18658;DHT22;9458;50.942;5.074;2023-05-07T16:08:13;20.40;99.90
18658;DHT22;9458;50.942;5.074;2023-05-07T16:10:42;20.00;99.90